Map Display - EGPH to EGAC
(last flight recorded 06-03-2021, 19:52 - Dale Moore)

Aircraft Weights    Units : Maximums
Passengers :   36  
Cargo : kg 3,765 kg
Suggested Fuel Load : kg 1,742 kg
 
     
 
Dry Operating : 7,350 kg    
Total Payload : 0 kg 2,563 kg
 
Take Off : 8,072 kg 11,999 kg
 
Expected Landing : 7,740 kg 12,020 kg

Geoff Price,  SH36 ,  G-OLBA,  .

Route Distance Previous
Flights
Estimated
Duration
Estimated
Fuel Flow
Estimated
Fuel Use
EGPH - Edinburgh
EGAC - Belfast City
117 nm 0 00:52 390 kg/h 332 kg

Current weather :-
2021/03/06 18:09
TAF EGPH 061654Z 0618/0718 25008KT 9999 FEW040 PROB40
TEMPO 0712/0718 8000 -RA BKN014
 

Back to Virtual Airline